Bernardo Larroude, Argentina
Current Conditions -  °F | °C
As of 4:00 PM on Sunday 21 Dec 2014 (Local Time) from SAOC Reporting Station
Broken Clouds Broken Clouds  
Wind Chill: 64°   Ceiling: 2500
Heat Index: 64°   Visibility: 6mi
Dew Point: 28°   Wind: 14mph
Humidity: 26%   Direction: 180°S
Pressure: 29.91"   Gusts: 26mph
Location:  35.03°S, 63.57°W
Report Text: SAOC 211900Z 18012G23KT 9999 BKN025 SCT040 18/M02 Q1013
Loading
Personal Weather Stations






























Interactive Weather Map New forecast layout! Learn more

10-Day Weather Forecast

Advertisements
Track Severe Weather on mobile